Time;durP1;ratioP1;P1;durP2;ratioP2;P2;SDS_P1;SDS_P2;PMS_P1;PMS_P2;Temp;Humidity;BMP_temperature;BMP_pressure;BME280_temperature;BME280_humidity;BME280_pressure;Samples;Min_cycle;Max_cycle;Signal;HPM_P1;HPM_P2
2023/11/17 00:00:50;;;;;;;;;;;256.40;2252.80;;;;;;4995545;28;19984;-73
2023/11/17 00:03:15;;;;;;;;;;;256.50;2252.80;;;;;;4986542;28;19909;-73
2023/11/17 00:05:41;;;;;;;;;;;256.50;2252.80;;;;;;4993677;28;19905;-73
2023/11/17 00:08:07;;;;;;;;;;;256.50;2252.80;;;;;;4984840;28;19913;-73
2023/11/17 00:10:34;;;;;;;;;;;256.40;2252.80;;;;;;4983796;28;19953;-74
2023/11/17 00:13:00;;;;;;;;;;;256.50;2252.80;;;;;;4999586;28;20004;-73
2023/11/17 00:15:25;;;;;;;;;;;256.40;2252.80;;;;;;4989418;28;20385;-73
2023/11/17 00:17:51;;;;;;;;;;;256.40;2252.80;;;;;;4994111;28;19953;-73
2023/11/17 00:20:20;;;;;;;;;;;256.40;2252.80;;;;;;4989913;28;20283;-73
2023/11/17 00:22:48;;;;;;;;;;;256.40;2252.80;;;;;;4990282;28;20371;-73
2023/11/17 00:25:14;;;;;;;;;;;256.40;2252.80;;;;;;4994001;28;19912;-73
2023/11/17 00:27:40;;;;;;;;;;;256.40;2252.80;;;;;;4995159;28;20267;-73
2023/11/17 00:30:07;;;;;;;;;;;256.30;2252.80;;;;;;4990222;28;19913;-73
2023/11/17 00:32:33;;;;;;;;;;;256.30;2252.80;;;;;;4987045;28;20036;-73
2023/11/17 00:34:59;;;;;;;;;;;256.40;2252.80;;;;;;4994732;28;19997;-74
2023/11/17 00:37:26;;;;;;;;;;;256.40;2252.80;;;;;;4988231;28;19906;-73
2023/11/17 00:39:54;;;;;;;;;;;256.40;2252.80;;;;;;4991309;28;19912;-73
2023/11/17 00:42:20;;;;;;;;;;;256.40;2252.80;;;;;;4989536;28;19937;-74
2023/11/17 00:44:46;;;;;;;;;;;256.50;2252.80;;;;;;4990066;28;20383;-73
2023/11/17 00:47:12;;;;;;;;;;;256.50;2252.80;;;;;;4987248;28;19909;-74
2023/11/17 00:49:39;;;;;;;;;;;256.50;2252.80;;;;;;4987315;28;19910;-73
2023/11/17 00:52:05;;;;;;;;;;;256.50;2252.80;;;;;;4971863;28;19911;-73
2023/11/17 00:54:36;;;;;;;;;;;256.50;2252.80;;;;;;4990520;28;19929;-73
2023/11/17 00:57:01;;;;;;;;;;;256.50;2252.80;;;;;;4994709;28;20291;-73
2023/11/17 00:59:27;;;;;;;;;;;256.10;2252.80;;;;;;4992377;28;19905;-73
2023/11/17 01:01:53;;;;;;;;;;;256.60;2252.80;;;;;;4992205;28;20008;-73
2023/11/17 01:04:19;;;;;;;;;;;256.60;2252.80;;;;;;4987083;28;20373;-75
2023/11/17 01:06:45;;;;;;;;;;;256.60;2252.80;;;;;;4989691;28;19993;-73
2023/11/17 01:09:11;;;;;;;;;;;256.60;2252.80;;;;;;4991616;28;19917;-74
2023/11/17 01:11:39;;;;;;;;;;;256.60;2252.80;;;;;;4986986;28;19906;-73
2023/11/17 01:14:05;;;;;;;;;;;256.70;2252.80;;;;;;4991134;28;20394;-73
2023/11/17 01:16:30;;;;;;;;;;;256.70;2252.80;;;;;;4988688;28;19964;-73
2023/11/17 01:18:56;;;;;;;;;;;256.70;2252.80;;;;;;4988217;28;19909;-74
2023/11/17 01:21:22;;;;;;;;;;;256.80;2252.80;;;;;;4991665;28;19928;-74
2023/11/17 01:23:47;;;;;;;;;;;256.80;2252.80;;;;;;4988253;28;20382;-74
2023/11/17 01:26:13;;;;;;;;;;;256.80;2252.80;;;;;;4995211;28;19960;-74
2023/11/17 01:28:38;;;;;;;;;;;256.90;2252.80;;;;;;4975958;28;19906;-74
2023/11/17 01:31:04;;;;;;;;;;;256.90;2252.80;;;;;;4995545;28;20360;-73
2023/11/17 01:33:30;;;;;;;;;;;256.90;2252.80;;;;;;4995002;28;19956;-74
2023/11/17 01:35:56;;;;;;;;;;;256.90;2252.80;;;;;;4994835;28;20374;-74
2023/11/17 01:38:22;;;;;;;;;;;256.90;2252.80;;;;;;4995156;28;19909;-74
2023/11/17 01:40:48;;;;;;;;;;;281.60;2278.40;;;;;;4994805;28;20456;-73
2023/11/17 01:43:16;;;;;;;;;;;281.60;2278.40;;;;;;4994700;28;20323;-74
2023/11/17 01:45:43;;;;;;;;;;;281.60;2278.40;;;;;;4994792;28;20009;-74
2023/11/17 01:48:09;;;;;;;;;;;281.60;2278.40;;;;;;4995021;28;20352;-73
2023/11/17 01:50:35;;;;;;;;;;;281.60;2278.40;;;;;;4994835;28;19916;-74
2023/11/17 01:53:01;;;;;;;;;;;281.60;2278.40;;;;;;4994395;28;19914;-73
2023/11/17 01:55:27;;;;;;;;;;;281.60;2278.40;;;;;;4994712;28;19916;-74
2023/11/17 01:57:53;;;;;;;;;;;281.60;2278.40;;;;;;4994345;28;19909;-74
2023/11/17 02:00:19;;;;;;;;;;;256.90;2252.80;;;;;;4981669;28;19928;-74
2023/11/17 02:02:47;;;;;;;;;;;281.70;2278.40;;;;;;4994585;28;20355;-74
2023/11/17 02:05:14;;;;;;;;;;;281.60;2278.40;;;;;;4994555;28;19938;-73
2023/11/17 02:07:46;;;;;;;;;;;281.70;2278.40;;;;;;4994174;28;19906;-74
2023/11/17 02:10:20;;;;;;;;;;;281.60;2278.40;;;;;;4994404;28;19917;-75
2023/11/17 02:12:49;;;;;;;;;;;281.60;2278.40;;;;;;4994221;28;19905;-74
2023/11/17 02:15:16;;;;;;;;;;;281.60;2278.40;;;;;;4994450;28;19912;-73
2023/11/17 02:17:43;;;;;;;;;;;281.60;2278.40;;;;;;4994378;28;19952;-74
2023/11/17 02:20:11;;;;;;;;;;;281.60;2278.40;;;;;;4994401;28;19918;-75
2023/11/17 02:22:47;;;;;;;;;;;281.60;2278.40;;;;;;4994137;28;19949;-73
2023/11/17 02:25:32;;;;;;;;;;;281.70;2278.40;;;;;;4994323;28;19964;-74
2023/11/17 02:28:20;;;;;;;;;;;281.70;2278.40;;;;;;4981689;28;19906;-74
2023/11/17 02:30:55;;;;;;;;;;;281.70;2278.40;;;;;;4994021;28;19960;-74
2023/11/17 02:33:24;;;;;;;;;;;281.80;2278.40;;;;;;4994114;28;19918;-74
2023/11/17 02:35:55;;;;;;;;;;;281.80;2278.40;;;;;;4994202;28;20271;-74
2023/11/17 02:38:20;;;;;;;;;;;281.80;2278.40;;;;;;4994170;28;19979;-73
2023/11/17 02:40:46;;;;;;;;;;;281.90;2278.40;;;;;;4994186;28;20355;-73
2023/11/17 02:43:12;;;;;;;;;;;281.90;2278.40;;;;;;4994092;28;19914;-72
2023/11/17 02:45:38;;;;;;;;;;;281.90;2278.40;;;;;;4993916;28;19996;-74
2023/11/17 02:48:04;;;;;;;;;;;281.90;2278.40;;;;;;4994083;28;19905;-74
2023/11/17 02:50:38;;;;;;;;;;;281.90;2278.40;;;;;;4976499;28;19917;-74
2023/11/17 02:53:17;;;;;;;;;;;281.90;2278.40;;;;;;4993781;28;19914;-74
2023/11/17 02:55:43;;;;;;;;;;;282.00;2278.40;;;;;;4994149;28;20347;-74
2023/11/17 02:58:09;;;;;;;;;;;282.00;2278.40;;;;;;4993631;28;19956;-75
2023/11/17 03:00:35;;;;;;;;;;;282.00;2278.40;;;;;;4993922;28;19917;-75
2023/11/17 03:03:02;;;;;;;;;;;282.00;2278.40;;;;;;4993822;28;19905;-74
2023/11/17 03:05:28;;;;;;;;;;;282.00;2278.40;;;;;;4979968;28;19988;-73
2023/11/17 03:07:54;;;;;;;;;;;282.00;2278.40;;;;;;4997582;28;19906;-75
2023/11/17 03:10:20;;;;;;;;;;;282.00;2278.40;;;;;;4997713;28;19906;-74
2023/11/17 03:12:46;;;;;;;;;;;282.00;2278.40;;;;;;4997432;28;20000;-75
2023/11/17 03:15:11;;;;;;;;;;;282.00;2278.40;;;;;;4997592;28;19981;-75
2023/11/17 03:17:38;;;;;;;;;;;282.00;2278.40;;;;;;4997618;28;19937;-74
2023/11/17 03:20:14;;;;;;;;;;;282.00;2278.40;;;;;;4997386;28;20008;-73
2023/11/17 03:22:44;;;;;;;;;;;282.00;2278.40;;;;;;4997413;28;20003;-75
2023/11/17 03:25:15;;;;;;;;;;;281.90;2278.40;;;;;;4997512;28;19913;-74
2023/11/17 03:27:41;;;;;;;;;;;281.90;2278.40;;;;;;4997472;28;19987;-74
2023/11/17 03:30:09;;;;;;;;;;;281.90;2278.40;;;;;;4997254;28;19912;-74
2023/11/17 03:32:35;;;;;;;;;;;281.80;2278.40;;;;;;4997184;28;19905;-75
2023/11/17 03:35:01;;;;;;;;;;;281.80;2278.40;;;;;;4997047;28;20326;-74
2023/11/17 03:37:27;;;;;;;;;;;281.80;2278.40;;;;;;4996963;28;19906;-74
2023/11/17 03:39:52;;;;;;;;;;;281.80;2278.40;;;;;;4997415;28;20283;-74
2023/11/17 03:42:21;;;;;;;;;;;282.00;2278.40;;;;;;4996998;28;19963;-74
2023/11/17 03:44:48;;;;;;;;;;;282.00;2278.40;;;;;;4997200;28;19905;-74
2023/11/17 03:47:15;;;;;;;;;;;282.10;2278.40;;;;;;4996993;28;19906;-73
2023/11/17 03:49:43;;;;;;;;;;;282.10;2278.40;;;;;;4996955;28;19910;-74
2023/11/17 03:52:14;;;;;;;;;;;282.20;2278.40;;;;;;4997525;28;19988;-74
2023/11/17 03:54:39;;;;;;;;;;;282.20;2278.40;;;;;;4997157;28;20282;-74
2023/11/17 03:57:06;;;;;;;;;;;282.20;2278.40;;;;;;4996627;28;19906;-74
2023/11/17 03:59:32;;;;;;;;;;;282.20;2278.40;;;;;;4996622;28;19913;-74
2023/11/17 04:01:58;;;;;;;;;;;282.00;2278.40;;;;;;4997130;28;19906;-74
2023/11/17 04:04:25;;;;;;;;;;;282.00;2278.40;;;;;;4996607;28;19909;-74
2023/11/17 04:06:52;;;;;;;;;;;282.00;2278.40;;;;;;4984060;28;19913;-74
2023/11/17 04:09:20;;;;;;;;;;;282.10;2278.40;;;;;;4996584;28;20372;-75
2023/11/17 04:11:46;;;;;;;;;;;282.20;2278.40;;;;;;4996707;28;19912;-75
2023/11/17 04:14:12;;;;;;;;;;;282.30;2278.40;;;;;;4996265;28;19960;-74
2023/11/17 04:16:38;;;;;;;;;;;282.30;2278.40;;;;;;4995413;28;19956;-75
2023/11/17 04:19:04;;;;;;;;;;;282.30;2278.40;;;;;;4996385;28;20273;-75
2023/11/17 04:21:29;;;;;;;;;;;282.30;2278.40;;;;;;4996151;28;19925;-75
2023/11/17 04:23:55;;;;;;;;;;;282.20;2278.40;;;;;;4996138;28;19932;-75
2023/11/17 04:26:21;;;;;;;;;;;282.10;2278.40;;;;;;4996478;28;19968;-75
2023/11/17 04:28:47;;;;;;;;;;;282.00;2278.40;;;;;;4996597;28;19912;-74
2023/11/17 04:31:13;;;;;;;;;;;282.00;2278.40;;;;;;4996609;28;20360;-75
2023/11/17 04:33:39;;;;;;;;;;;282.10;2278.40;;;;;;4995970;28;19921;-74
2023/11/17 04:36:04;;;;;;;;;;;282.20;2278.40;;;;;;4996496;28;19905;-74
2023/11/17 04:38:30;;;;;;;;;;;282.20;2278.40;;;;;;4995987;28;19951;-74
2023/11/17 04:40:57;;;;;;;;;;;282.40;2278.40;;;;;;4996419;28;19905;-75
2023/11/17 04:43:22;;;;;;;;;;;282.40;2278.40;;;;;;4978751;28;19917;-75
2023/11/17 04:45:49;;;;;;;;;;;282.40;2278.40;;;;;;4995918;28;19906;-74
2023/11/17 04:48:16;;;;;;;;;;;282.20;2278.40;;;;;;4995754;28;19905;-74
2023/11/17 04:50:42;;;;;;;;;;;281.90;2278.40;;;;;;4995702;28;19913;-74
2023/11/17 04:53:07;;;;;;;;;;;282.10;2278.40;;;;;;4995603;28;19936;-74
2023/11/17 04:55:33;;;;;;;;;;;282.20;2278.40;;;;;;4995508;28;20360;-74
2023/11/17 04:57:59;;;;;;;;;;;282.10;2278.40;;;;;;4995671;28;20363;-74
2023/11/17 05:00:26;;;;;;;;;;;282.10;2278.40;;;;;;4977965;28;19906;-74
2023/11/17 05:02:54;;;;;;;;;;;282.00;2278.40;;;;;;4995505;28;20407;-74
2023/11/17 05:05:20;;;;;;;;;;;281.90;2278.40;;;;;;4995528;28;19913;-74
2023/11/17 05:07:46;;;;;;;;;;;281.70;2278.40;;;;;;4995525;28;19928;-75
2023/11/17 05:10:18;;;;;;;;;;;281.70;2278.40;;;;;;4995467;28;19906;-74
2023/11/17 05:12:44;;;;;;;;;;;281.60;2278.40;;;;;;4995308;28;20355;-74
2023/11/17 05:15:13;;;;;;;;;;;256.80;2252.80;;;;;;4995332;28;19952;-74
2023/11/17 05:17:47;;;;;;;;;;;256.90;2252.80;;;;;;4977746;28;19906;-74
2023/11/17 05:20:13;;;;;;;;;;;281.60;2278.40;;;;;;4995251;28;20399;-74
2023/11/17 05:22:39;;;;;;;;;;;256.90;2252.80;;;;;;4995109;28;19917;-74
2023/11/17 05:25:06;;;;;;;;;;;256.90;2252.80;;;;;;4995217;28;19960;-74
2023/11/17 05:27:35;;;;;;;;;;;256.60;2252.80;;;;;;4994571;28;20482;-74
2023/11/17 05:30:04;;;;;;;;;;;256.80;2252.80;;;;;;4995170;28;19906;-74
2023/11/17 05:32:30;;;;;;;;;;;256.80;2252.80;;;;;;4994802;28;20322;-74
2023/11/17 05:34:56;;;;;;;;;;;256.70;2252.80;;;;;;4995000;28;20249;-74
2023/11/17 05:37:22;;;;;;;;;;;256.60;2252.80;;;;;;4994821;28;19913;-74
2023/11/17 05:39:48;;;;;;;;;;;256.50;2252.80;;;;;;4994986;28;20003;-74
2023/11/17 05:42:14;;;;;;;;;;;256.50;2252.80;;;;;;4994833;28;20316;-74
2023/11/17 05:44:39;;;;;;;;;;;256.40;2252.80;;;;;;4994749;28;20004;-74
2023/11/17 05:47:08;;;;;;;;;;;256.30;2252.80;;;;;;4994721;28;20429;-75
2023/11/17 05:49:41;;;;;;;;;;;;;;;;;;4994619;28;19906;-74
2023/11/17 05:52:10;;;;;;;;;;;256.10;2252.80;;;;;;4994568;28;19910;-74
2023/11/17 05:54:43;;;;;;;;;;;256.00;2252.80;;;;;;4994559;28;19913;-74
2023/11/17 05:57:10;;;;;;;;;;;256.00;2252.80;;;;;;4994562;28;19913;-74
2023/11/17 05:59:36;;;;;;;;;;;256.00;2252.80;;;;;;4994396;28;20418;-73
2023/11/17 06:02:03;;;;;;;;;;;256.10;2252.80;;;;;;4994476;28;19906;-74
2023/11/17 06:04:29;;;;;;;;;;;256.10;2252.80;;;;;;4994355;28;20266;-74
2023/11/17 06:06:54;;;;;;;;;;;256.10;2252.80;;;;;;4994467;28;19906;-74
2023/11/17 06:09:20;;;;;;;;;;;256.10;2048.00;;;;;;4994353;28;19906;-74
2023/11/17 06:11:45;;;;;;;;;;;256.10;2252.80;;;;;;4993289;28;20004;-74
2023/11/17 06:14:11;;;;;;;;;;;256.20;2252.80;;;;;;4985160;28;19914;-74
2023/11/17 06:16:37;;;;;;;;;;;256.20;2252.80;;;;;;4993919;28;19909;-74
2023/11/17 06:19:03;;;;;;;;;;;256.20;2252.80;;;;;;4994240;28;19906;-74
2023/11/17 06:21:28;;;;;;;;;;;256.20;2252.80;;;;;;4989261;28;19917;-73
2023/11/17 06:23:54;;;;;;;;;;;256.20;2252.80;;;;;;4985648;28;19910;-73
2023/11/17 06:26:20;;;;;;;;;;;256.10;2252.80;;;;;;4987139;28;19959;-73
2023/11/17 06:28:46;;;;;;;;;;;256.00;2252.80;;;;;;4991292;28;19906;-73
2023/11/17 06:31:13;;;;;;;;;;;231.30;2252.80;;;;;;4991867;28;19906;-74
2023/11/17 06:33:39;;;;;;;;;;;231.30;2252.80;;;;;;4982969;28;20690;-74
2023/11/17 06:36:06;;;;;;;;;;;231.30;2252.80;;;;;;4988181;28;20040;-74
2023/11/17 06:38:33;;;;;;;;;;;231.30;2252.80;;;;;;4966938;28;19909;-74
2023/11/17 06:41:03;;;;;;;;;;;256.20;2252.80;;;;;;4988445;28;19905;-71
2023/11/17 06:43:29;;;;;;;;;;;231.30;2252.80;;;;;;4987888;28;20401;-75
2023/11/17 06:45:55;;;;;;;;;;;256.00;2252.80;;;;;;4986140;28;19906;-75
2023/11/17 06:48:21;;;;;;;;;;;231.30;2252.80;;;;;;4970240;28;19906;-76
2023/11/17 06:50:50;;;;;;;;;;;256.00;2252.80;;;;;;4969935;28;19909;-75
2023/11/17 06:53:18;;;;;;;;;;;256.00;2252.80;;;;;;4974558;28;19972;-74
2023/11/17 06:55:43;;;;;;;;;;;256.00;2252.80;;;;;;4973745;28;19953;-75
2023/11/17 06:58:09;;;;;;;;;;;256.00;2252.80;;;;;;4974335;28;19969;-75
2023/11/17 07:00:34;;;;;;;;;;;256.00;2252.80;;;;;;4983070;28;19949;-75
2023/11/17 07:03:00;;;;;;;;;;;256.00;2252.80;;;;;;4972930;28;20382;-75
2023/11/17 07:05:26;;;;;;;;;;;256.10;2252.80;;;;;;4973105;28;20331;-75
2023/11/17 07:07:57;;;;;;;;;;;256.10;2252.80;;;;;;4976809;28;19910;-75
2023/11/17 07:10:24;;;;;;;;;;;256.00;2252.80;;;;;;4987788;28;19910;-74
2023/11/17 07:12:50;;;;;;;;;;;231.20;2252.80;;;;;;4985557;28;20318;-74
2023/11/17 07:15:17;;;;;;;;;;;256.00;2252.80;;;;;;4987567;28;19910;-75
2023/11/17 07:17:42;;;;;;;;;;;256.10;2252.80;;;;;;4991245;28;19936;-75
2023/11/17 07:20:11;;;;;;;;;;;256.00;2252.80;;;;;;4992532;28;20360;-75
2023/11/17 07:22:40;;;;;;;;;;;256.10;2252.80;;;;;;4986303;28;20060;-76
2023/11/17 07:25:06;;;;;;;;;;;256.10;2252.80;;;;;;4981187;28;19906;-77
2023/11/17 07:27:32;;;;;;;;;;;256.00;2252.80;;;;;;4975640;28;20283;-77
2023/11/17 07:29:57;;;;;;;;;;;256.00;2252.80;;;;;;4976037;28;19912;-77
2023/11/17 07:32:23;;;;;;;;;;;231.30;2252.80;;;;;;4968899;28;19906;-77
2023/11/17 07:34:50;;;;;;;;;;;231.30;2252.80;;;;;;4985483;28;19913;-76
2023/11/17 07:37:15;;;;;;;;;;;231.30;2252.80;;;;;;4976304;28;19912;-77
2023/11/17 07:39:41;;;;;;;;;;;231.30;2252.80;;;;;;4968919;28;20338;-76
2023/11/17 07:42:08;;;;;;;;;;;231.30;2252.80;;;;;;4966262;28;19906;-74
2023/11/17 07:44:36;;;;;;;;;;;231.30;2252.80;;;;;;4986564;28;20426;-75
2023/11/17 07:47:04;;;;;;;;;;;256.00;2252.80;;;;;;4985959;28;20030;-75
2023/11/17 07:49:30;;;;;;;;;;;231.30;2252.80;;;;;;4990895;28;20294;-75
2023/11/17 07:51:55;;;;;;;;;;;256.90;2252.80;;;;;;4972485;28;20004;-75
2023/11/17 07:54:22;;;;;;;;;;;231.20;2252.80;;;;;;4981766;28;20013;-76
2023/11/17 07:56:48;;;;;;;;;;;231.20;2252.80;;;;;;4972696;28;19964;-75
2023/11/17 07:59:14;;;;;;;;;;;231.20;2252.80;;;;;;4995407;28;19912;-76
2023/11/17 08:01:40;;;;;;;;;;;231.20;2252.80;;;;;;4990313;28;20271;-74
2023/11/17 08:04:08;;;;;;;;;;;231.30;2252.80;;;;;;4996826;28;19909;-75
2023/11/17 08:06:35;;;;;;;;;;;231.20;2252.80;;;;;;4988495;28;20004;-75
2023/11/17 08:09:01;;;;;;;;;;;231.20;2252.80;;;;;;4978472;28;19917;-75
2023/11/17 08:11:26;;;;;;;;;;;231.20;2252.80;;;;;;4971679;28;19913;-75
2023/11/17 08:13:52;;;;;;;;;;;231.20;2252.80;;;;;;4991067;28;19918;-74
2023/11/17 08:16:18;;;;;;;;;;;231.20;2252.80;;;;;;4988005;28;19913;-74
2023/11/17 08:18:47;;;;;;;;;;;231.20;2252.80;;;;;;4991836;28;19906;-75
2023/11/17 08:21:13;;;;;;;;;;;231.20;2252.80;;;;;;4989894;28;20008;-74
2023/11/17 08:23:41;;;;;;;;;;;231.20;2252.80;;;;;;4987550;28;19965;-76
2023/11/17 08:26:08;;;;;;;;;;;231.10;2252.80;;;;;;4985246;28;20279;-74
2023/11/17 08:28:33;;;;;;;;;;;231.10;2252.80;;;;;;4993482;28;19910;-74
2023/11/17 08:30:59;;;;;;;;;;;231.10;2252.80;;;;;;4975106;28;19906;-75
2023/11/17 08:33:25;;;;;;;;;;;231.20;2252.80;;;;;;4984100;28;19917;-74
2023/11/17 08:35:51;;;;;;;;;;;231.20;2252.80;;;;;;4974800;28;19910;-74
2023/11/17 08:38:17;;;;;;;;;;;231.20;2252.80;;;;;;4991518;28;19913;-74
2023/11/17 08:40:44;;;;;;;;;;;231.20;2252.80;;;;;;4977044;28;19909;-75
2023/11/17 08:43:10;;;;;;;;;;;231.20;2252.80;;;;;;4991038;28;20008;-75
2023/11/17 08:45:36;;;;;;;;;;;231.20;2252.80;;;;;;4993144;28;20371;-75
2023/11/17 08:48:02;;;;;;;;;;;231.10;2252.80;;;;;;4990811;28;19906;-75
2023/11/17 08:50:28;;;;;;;;;;;231.20;2252.80;;;;;;4987965;28;19913;-75
2023/11/17 08:52:54;;;;;;;;;;;231.20;2252.80;;;;;;4973569;28;20332;-75
2023/11/17 08:55:23;;;;;;;;;;;231.10;2252.80;;;;;;4976135;28;19964;-75
2023/11/17 08:57:49;;;;;;;;;;;231.10;2252.80;;;;;;4991121;28;20433;-75
2023/11/17 09:00:17;;;;;;;;;;;231.00;2252.80;;;;;;4995247;28;20024;-75
2023/11/17 09:02:45;;;;;;;;;;;231.00;2252.80;;;;;;4991900;28;19909;-75
2023/11/17 09:05:11;;;;;;;;;;;231.00;2252.80;;;;;;4993538;28;19905;-74
2023/11/17 09:07:37;;;;;;;;;;;231.00;2252.80;;;;;;4989910;28;20470;-74
2023/11/17 09:10:03;;;;;;;;;;;231.00;2252.80;;;;;;4960937;28;20360;-78
2023/11/17 09:12:31;;;;;;;;;;;231.00;2252.80;;;;;;4960969;28;19906;-75
2023/11/17 09:14:57;;;;;;;;;;;230.90;2252.80;;;;;;4969358;28;19914;-77
2023/11/17 09:17:22;;;;;;;;;;;231.00;2252.80;;;;;;4989795;28;19996;-76
2023/11/17 09:19:48;;;;;;;;;;;231.00;2252.80;;;;;;4967625;28;19914;-77
2023/11/17 09:22:14;;;;;;;;;;;231.00;2252.80;;;;;;4966730;28;19940;-76
2023/11/17 09:24:40;;;;;;;;;;;231.10;2252.80;;;;;;4968059;28;20281;-75
2023/11/17 09:27:07;;;;;;;;;;;231.00;2252.80;;;;;;4980384;28;19913;-75
2023/11/17 09:29:34;;;;;;;;;;;231.10;2252.80;;;;;;4969695;28;19933;-75
2023/11/17 09:32:00;;;;;;;;;;;231.10;2252.80;;;;;;4988793;28;19907;-76
2023/11/17 09:34:25;;;;;;;;;;;231.10;2252.80;;;;;;4977651;28;19967;-76
2023/11/17 09:36:51;;;;;;;;;;;231.10;2252.80;;;;;;4988902;28;19905;-76
2023/11/17 09:39:18;;;;;;;;;;;230.80;2252.80;;;;;;4960693;28;20418;-76
2023/11/17 09:41:44;;;;;;;;;;;231.20;2252.80;;;;;;4986637;28;19939;-75
2023/11/17 09:44:11;;;;;;;;;;;231.20;2252.80;;;;;;4989991;28;19906;-75
2023/11/17 09:46:45;;;;;;;;;;;231.10;2252.80;;;;;;4986449;28;20290;-75
2023/11/17 09:49:13;;;;;;;;;;;231.20;2252.80;;;;;;4968548;28;19912;-75
2023/11/17 09:51:42;;;;;;;;;;;231.20;2252.80;;;;;;4975199;28;19910;-75
2023/11/17 09:54:12;;;;;;;;;;;231.20;2252.80;;;;;;4962300;28;19918;-76
2023/11/17 09:56:40;;;;;;;;;;;231.20;2252.80;;;;;;4971967;28;20276;-75
2023/11/17 09:59:07;;;;;;;;;;;231.20;2252.80;;;;;;4986914;28;19964;-76
2023/11/17 10:01:34;;;;;;;;;;;231.20;2252.80;;;;;;4991219;28;19914;-75
2023/11/17 10:04:02;;;;;;;;;;;231.20;2252.80;;;;;;4967534;28;19906;-76
2023/11/17 10:06:28;;;;;;;;;;;231.20;2252.80;;;;;;4972409;28;19916;-76
2023/11/17 10:08:54;;;;;;;;;;;231.20;2252.80;;;;;;4971276;28;19957;-75
2023/11/17 10:11:20;;;;;;;;;;;231.20;2252.80;;;;;;4987589;28;19906;-75
2023/11/17 10:13:48;;;;;;;;;;;231.20;2252.80;;;;;;4989299;28;19916;-75
2023/11/17 10:16:15;;;;;;;;;;;231.30;2252.80;;;;;;4986658;28;19920;-76
2023/11/17 10:18:41;;;;;;;;;;;231.30;2252.80;;;;;;4975291;28;19996;-76
2023/11/17 10:21:09;;;;;;;;;;;231.30;2252.80;;;;;;4983283;28;19922;-76
2023/11/17 10:23:35;;;;;;;;;;;256.00;2252.80;;;;;;4963402;28;19918;-76
2023/11/17 10:26:00;;;;;;;;;;;256.00;2252.80;;;;;;4964666;28;20424;-76
2023/11/17 10:28:27;;;;;;;;;;;256.00;2252.80;;;;;;4987918;28;19913;-76
2023/11/17 10:30:56;;;;;;;;;;;256.00;2252.80;;;;;;4991271;28;19956;-75
2023/11/17 10:33:24;;;;;;;;;;;256.00;2252.80;;;;;;4966578;28;19910;-76
2023/11/17 10:36:00;;;;;;;;;;;256.10;2252.80;;;;;;4958266;28;19968;-76
2023/11/17 10:38:26;;;;;;;;;;;256.10;2252.80;;;;;;4972898;28;19942;-76
2023/11/17 10:40:52;;;;;;;;;;;256.10;2252.80;;;;;;4961028;28;19980;-76
2023/11/17 10:43:17;;;;;;;;;;;256.20;2252.80;;;;;;4975051;28;19916;-76
2023/11/17 10:45:46;;;;;;;;;;;256.40;2252.80;;;;;;4967409;28;19909;-77
2023/11/17 10:48:13;;;;;;;;;;;256.50;2252.80;;;;;;4961268;28;19906;-77
2023/11/17 10:50:41;;;;;;;;;;;256.60;2252.80;;;;;;4968024;28;20054;-76
2023/11/17 10:53:18;;;;;;;;;;;256.60;2252.80;;;;;;4984426;28;19918;-77
2023/11/17 10:55:44;;;;;;;;;;;256.60;2252.80;;;;;;4967670;28;19913;-76
2023/11/17 10:58:15;;;;;;;;;;;256.60;2252.80;;;;;;4986733;28;20257;-76
2023/11/17 11:00:42;;;;;;;;;;;256.60;2252.80;;;;;;4981662;28;20043;-74
2023/11/17 11:03:09;;;;;;;;;;;256.60;2252.80;;;;;;4986833;28;19932;-75
2023/11/17 11:05:37;;;;;;;;;;;231.30;2252.80;;;;;;4973293;28;19913;-75
2023/11/17 11:08:07;;;;;;;;;;;256.50;2252.80;;;;;;4987318;28;19996;-77
2023/11/17 11:10:34;;;;;;;;;;;256.60;2252.80;;;;;;4965531;28;19917;-73
2023/11/17 11:13:03;;;;;;;;;;;256.60;2252.80;;;;;;4988521;28;19928;-79
2023/11/17 11:15:29;;;;;;;;;;;256.70;2252.80;;;;;;4988839;28;19955;-78
2023/11/17 11:17:58;;;;;;;;;;;256.60;2252.80;;;;;;4988320;28;20363;-75
2023/11/17 11:20:24;;;;;;;;;;;256.70;2252.80;;;;;;4987760;28;19928;-75
2023/11/17 11:22:55;;;;;;;;;;;256.80;2252.80;;;;;;4987152;28;19910;-75
2023/11/17 11:25:21;;;;;;;;;;;256.70;2252.80;;;;;;4985416;28;20371;-74
2023/11/17 11:27:48;;;;;;;;;;;256.80;2252.80;;;;;;4976207;28;19906;-75
2023/11/17 11:30:15;;;;;;;;;;;256.80;2252.80;;;;;;4993953;28;20341;-76
2023/11/17 11:32:44;;;;;;;;;;;256.90;2252.80;;;;;;4973703;28;19952;-75
2023/11/17 11:35:10;;;;;;;;;;;256.80;2252.80;;;;;;4995492;28;19913;-75
2023/11/17 11:37:37;;;;;;;;;;;256.90;2252.80;;;;;;4974139;28;19906;-76
2023/11/17 11:40:02;;;;;;;;;;;256.90;2252.80;;;;;;4966295;28;19906;-75
2023/11/17 11:42:28;;;;;;;;;;;281.60;2278.40;;;;;;4991822;28;19960;-75
2023/11/17 11:44:54;;;;;;;;;;;256.90;2252.80;;;;;;4987309;28;19931;-75
2023/11/17 11:47:21;;;;;;;;;;;256.90;2252.80;;;;;;4991249;28;19946;-78
2023/11/17 11:49:49;;;;;;;;;;;256.90;2252.80;;;;;;4965628;28;19956;-76
2023/11/17 11:52:28;;;;;;;;;;;256.90;2252.80;;;;;;4986986;28;19910;-75
2023/11/17 11:54:55;;;;;;;;;;;281.60;2278.40;;;;;;4995180;28;20347;-74
2023/11/17 11:57:24;;;;;;;;;;;281.60;2278.40;;;;;;4962756;28;19913;-75
2023/11/17 11:59:50;;;;;;;;;;;281.60;2278.40;;;;;;4991688;28;19906;-76
2023/11/17 12:02:17;;;;;;;;;;;281.80;2278.40;;;;;;4975831;28;19913;-76
2023/11/17 12:04:42;;;;;;;;;;;281.80;2278.40;;;;;;4996104;28;19906;-76
2023/11/17 12:07:27;;;;;;;;;;;282.00;2278.40;;;;;;4976229;28;19906;-78
2023/11/17 12:09:58;;;;;;;;;;;282.10;2278.40;;;;;;4971014;28;19906;-77
2023/11/17 12:12:24;;;;;;;;;;;282.10;2278.40;;;;;;4985985;28;19941;-75
2023/11/17 12:14:51;;;;;;;;;;;282.00;2278.40;;;;;;4966648;28;20016;-75
2023/11/17 12:17:16;;;;;;;;;;;282.00;2278.40;;;;;;4987613;28;19905;-76
2023/11/17 12:19:42;;;;;;;;;;;282.00;1920.00;;;;;;4974699;28;19960;-76
2023/11/17 12:22:10;;;;;;;;;;;282.10;2278.40;;;;;;4990526;28;19922;-76
2023/11/17 12:24:37;;;;;;;;;;;282.00;2278.40;;;;;;4969779;28;19906;-75
2023/11/17 12:27:06;;;;;;;;;;;282.00;2278.40;;;;;;4993505;28;20005;-76
2023/11/17 12:29:32;;;;;;;;;;;282.00;2124.80;;;;;;4995768;28;20378;-74
2023/11/17 12:32:08;;;;;;;;;;;282.00;2278.40;;;;;;4989466;28;19906;-75
2023/11/17 12:34:42;;;;;;;;;;;282.00;1971.20;;;;;;4995926;28;19972;-75
2023/11/17 12:37:07;;;;;;;;;;;282.00;2278.40;;;;;;4976471;28;19906;-74
2023/11/17 12:39:37;;;;;;;;;;;282.20;2252.80;;;;;;4991843;28;19909;-74
2023/11/17 12:42:04;;;;;;;;;;;282.10;2278.40;;;;;;4988191;28;19910;-76
2023/11/17 12:44:32;;;;;;;;;;;282.00;2278.40;;;;;;4981412;28;20012;-74
2023/11/17 12:46:57;;;;;;;;;;;282.20;2278.40;;;;;;4970217;28;19905;-74
2023/11/17 12:49:24;;;;;;;;;;;282.20;2278.40;;;;;;4990501;28;19992;-75
2023/11/17 12:51:50;;;;;;;;;;;282.20;2278.40;;;;;;4991899;28;20012;-74
2023/11/17 12:54:16;;;;;;;;;;;282.40;2278.40;;;;;;4991320;28;19917;-76
2023/11/17 12:56:43;;;;;;;;;;;282.50;1894.40;;;;;;4990179;28;19906;-76
2023/11/17 12:59:10;;;;;;;;;;;307.20;2304.00;;;;;;4992139;28;19928;-76
2023/11/17 13:01:37;;;;;;;;;;;282.50;2278.40;;;;;;4977384;28;19913;-76
2023/11/17 13:04:03;;;;;;;;;;;282.50;2278.40;;;;;;4995380;28;19909;-76
2023/11/17 13:06:30;;;;;;;;;;;282.50;2278.40;;;;;;4991591;28;19913;-75
2023/11/17 13:08:56;;;;;;;;;;;282.50;2278.40;;;;;;4969913;28;19906;-77
2023/11/17 13:11:33;;;;;;;;;;;307.20;2304.00;;;;;;4975838;28;19992;-76
2023/11/17 13:13:59;;;;;;;;;;;307.30;2304.00;;;;;;4981044;28;20047;-75
2023/11/17 13:16:28;;;;;;;;;;;307.20;2304.00;;;;;;4969999;28;19972;-76
2023/11/17 13:18:54;;;;;;;;;;;307.20;2304.00;;;;;;4991127;28;19967;-76
2023/11/17 13:21:20;;;;;;;;;;;282.50;2278.40;;;;;;4986322;28;19918;-76
2023/11/17 13:23:46;;;;;;;;;;;307.20;2227.20;;;;;;4989034;28;19916;-77
2023/11/17 13:26:20;;;;;;;;;;;282.40;2278.40;;;;;;4973064;28;20275;-77
2023/11/17 13:28:46;;;;;;;;;;;307.20;2304.00;;;;;;4992259;28;19906;-75
2023/11/17 13:31:17;;;;;;;;;;;307.20;2304.00;;;;;;4990226;28;20330;-75
2023/11/17 13:33:42;;;;;;;;;;;307.20;2304.00;;;;;;4972509;28;19914;-76
2023/11/17 13:36:09;;;;;;;;;;;307.30;2304.00;;;;;;4974602;28;20356;-78
2023/11/17 13:38:54;;;;;;;;;;;307.20;2304.00;;;;;;4971153;28;19925;-76
2023/11/17 13:41:19;;;;;;;;;;;307.20;2304.00;;;;;;4988971;28;19906;-76